Time;durP1;ratioP1;P1;durP2;ratioP2;P2;SDS_P1;SDS_P2;PMS_P1;PMS_P2;Temp;Humidity;BMP_temperature;BMP_pressure;BME280_temperature;BME280_humidity;BME280_pressure;Samples;Min_cycle;Max_cycle;Signal;HPM_P1;HPM_P2
2022/10/03 04:31:26;;;;;;;;;13.75;12.00;;;;;15.24;75.23;102270.84;5030924;28;45485;-71
2022/10/03 04:34:15;;;;;;;;;13.75;13.00;;;;;15.25;75.01;102268.09;5015747;28;46465;-70
2022/10/03 04:36:59;;;;;;;;;14.00;14.00;;;;;15.25;74.92;102270.78;4998638;28;45598;-71
2022/10/03 04:39:52;;;;;;;;;14.25;14.25;;;;;15.25;74.66;102270.78;5017299;28;45459;-71
2022/10/03 04:42:51;;;;;;;;;19.25;15.00;;;;;15.24;74.93;102274.44;4999442;28;46227;-71
2022/10/03 04:45:44;;;;;;;;;12.25;12.25;;;;;15.22;74.54;102264.66;5017256;28;46405;-72
2022/10/03 04:48:12;;;;;;;;;18.25;17.00;;;;;15.23;74.84;102274.50;5016969;28;45447;-72
2022/10/03 04:51:09;;;;;;;;;14.25;14.25;;;;;15.15;75.11;102262.19;5017278;28;45505;-70
2022/10/03 04:54:14;;;;;;;;;18.25;16.25;;;;;15.14;74.61;102256.88;5016821;28;45360;-72
2022/10/03 04:56:51;;;;;;;;;16.75;14.00;;;;;15.18;74.77;102268.41;5003827;28;45937;-71
2022/10/03 04:59:35;;;;;;;;;18.25;16.00;;;;;15.19;74.95;102278.28;5017020;28;45502;-73
2022/10/03 05:02:17;;;;;;;;;13.50;12.25;;;;;15.15;74.87;102277.50;5026608;28;45368;-72
2022/10/03 05:04:45;;;;;;;;;15.25;14.50;;;;;15.14;74.88;102281.19;5036806;28;45362;-72
2022/10/03 05:07:31;;;;;;;;;19.75;17.25;;;;;15.08;74.64;102284.09;5023088;28;46141;-72
2022/10/03 05:10:18;;;;;;;;;18.75;14.25;;;;;15.05;74.72;102289.66;5032461;28;46448;-71
2022/10/03 05:13:10;;;;;;;;;17.50;14.00;;;;;15.05;74.90;102285.13;5028391;28;45305;-72
2022/10/03 05:15:55;;;;;;;;;17.00;15.50;;;;;15.05;74.63;102287.81;5036633;28;45339;-70
2022/10/03 05:18:40;;;;;;;;;16.25;13.50;;;;;14.95;74.67;102270.22;5016689;28;45277;-72
2022/10/03 05:21:15;;;;;;;;;13.50;13.50;;;;;15.03;74.23;102288.81;5016901;28;45356;-69
2022/10/03 05:23:50;;;;;;;;;14.25;14.25;;;;;14.91;74.70;102265.88;5016208;28;45403;-72
2022/10/03 05:26:40;;;;;;;;;20.50;19.75;;;;;14.94;74.47;102281.97;5016757;28;45369;-73
2022/10/03 05:29:24;;;;;;;;;21.75;20.00;;;;;14.89;74.80;102277.66;5015333;28;46471;-75
2022/10/03 05:32:05;;;;;;;;;25.00;22.00;;;;;14.90;74.83;102284.81;5030778;28;45555;-75
2022/10/03 05:34:52;;;;;;;;;16.50;16.50;;;;;14.88;75.16;102290.31;5036019;28;45419;-76
2022/10/03 05:37:45;;;;;;;;;22.25;19.75;;;;;14.85;74.94;102295.81;5036400;28;45403;-75
2022/10/03 05:40:20;;;;;;;;;18.25;17.50;;;;;14.83;75.07;102286.00;5035526;28;45474;-72
2022/10/03 05:43:10;;;;;;;;;20.00;17.00;;;;;14.79;75.26;102301.47;5037366;28;45403;-74
2022/10/03 05:45:53;;;;;;;;;17.50;16.75;;;;;14.79;75.61;102304.16;5036644;28;45371;-71
2022/10/03 05:49:00;;;;;;;;;17.75;16.25;;;;;14.70;75.39;102285.63;5018912;28;45701;-72
2022/10/03 05:51:42;;;;;;;;;17.75;16.00;;;;;14.68;75.46;102295.59;5026192;28;45403;-74
2022/10/03 05:54:39;;;;;;;;;21.50;17.75;;;;;14.60;75.60;102282.41;5036172;28;45424;-75
2022/10/03 05:57:17;;;;;;;;;20.50;16.75;;;;;14.70;76.03;102291.03;5036399;28;45296;-73
2022/10/03 06:00:08;;;;;;;;;24.00;21.00;;;;;14.72;76.00;102297.22;5035640;28;45357;-73
2022/10/03 06:02:51;;;;;;;;;18.00;16.00;;;;;14.66;76.24;102270.47;5035665;28;45324;-75
2022/10/03 06:05:41;;;;;;;;;21.00;17.50;;;;;14.73;75.86;102283.66;5035859;28;45434;-71
2022/10/03 06:08:27;;;;;;;;;13.75;13.75;;;;;14.75;75.94;102278.22;5018436;28;45347;-73
2022/10/03 06:11:18;;;;;;;;;19.25;16.00;;;;;14.76;75.49;102278.16;5008781;28;46421;-71
2022/10/03 06:14:23;;;;;;;;;23.25;19.75;;;;;14.77;74.71;102279.94;5025902;28;46422;-71
2022/10/03 06:17:16;;;;;;;;;18.50;17.50;;;;;14.75;74.38;102279.09;5015391;28;45355;-72
2022/10/03 06:20:10;;;;;;;;;15.00;15.00;;;;;14.73;74.05;102294.47;5024859;28;45385;-72
2022/10/03 06:22:59;;;;;;;;;18.25;16.25;;;;;14.67;73.59;102297.41;5034941;28;45357;-71
2022/10/03 06:25:25;;;;;;;;;25.00;21.00;;;;;14.63;73.49;102295.75;5015076;28;45357;-72
2022/10/03 06:27:56;;;;;;;;;17.75;17.75;;;;;14.61;73.09;102304.88;5014988;28;45431;-72
2022/10/03 06:30:30;;;;;;;;;19.50;17.25;;;;;14.58;73.22;102307.66;5015396;28;45451;-72
2022/10/03 06:33:05;;;;;;;;;17.75;15.75;;;;;14.53;72.12;102309.69;4993760;28;46298;-74
2022/10/03 06:35:48;;;;;;;;;21.25;17.50;;;;;14.47;72.39;102307.19;5014163;28;46243;-71
2022/10/03 06:38:22;;;;;;;;;13.50;13.50;;;;;14.45;71.56;102295.59;5014941;28;45542;-72
2022/10/03 06:41:15;;;;;;;;;13.75;11.25;;;;;14.37;72.26;102296.69;5015603;28;45328;-72
2022/10/03 06:44:05;;;;;;;;;13.75;13.00;;;;;14.36;72.04;102312.97;5015186;28;45349;-72
2022/10/03 06:46:45;;;;;;;;;6.00;6.00;;;;;14.25;71.05;102318.75;5015192;28;46178;-71
2022/10/03 06:49:38;;;;;;;;;10.25;10.25;;;;;14.15;71.34;102322.69;5013549;28;45412;-72
2022/10/03 06:52:32;;;;;;;;;10.00;9.00;;;;;14.08;72.10;102317.59;5014259;28;45321;-71
2022/10/03 06:55:35;;;;;;;;;11.00;10.00;;;;;14.04;71.75;102316.78;5015025;28;45337;-73
2022/10/03 06:58:19;;;;;;;;;18.75;12.00;;;;;14.00;72.30;102328.66;5015187;28;45399;-74
2022/10/03 07:01:12;;;;;;;;;17.50;14.75;;;;;13.97;72.45;102323.34;5015207;28;45403;-72
2022/10/03 07:03:50;;;;;;;;;18.00;14.00;;;;;13.87;72.14;102333.56;5015509;28;45562;-72
2022/10/03 07:06:41;;;;;;;;;17.50;14.75;;;;;13.81;72.82;102328.38;5008988;28;45599;-72
2022/10/03 07:09:29;;;;;;;;;21.00;17.75;;;;;13.76;73.17;102316.91;4994312;28;45346;-73
2022/10/03 07:12:05;;;;;;;;;15.50;15.50;;;;;13.83;73.50;102331.03;5014981;28;45245;-72
2022/10/03 07:14:43;;;;;;;;;19.00;15.00;;;;;13.72;73.16;102304.44;5015386;28;45388;-72
2022/10/03 07:17:36;;;;;;;;;19.75;16.50;;;;;13.93;73.29;102338.75;5002935;28;45353;-72
2022/10/03 07:20:40;;;;;;;;;19.00;13.00;;;;;14.02;73.93;102329.47;5010479;28;46535;-75
2022/10/03 07:23:30;;;;;;;;;14.00;12.25;;;;;14.12;73.48;102332.75;4990669;28;45515;-73
2022/10/03 07:26:29;;;;;;;;;13.00;12.50;;;;;14.19;72.60;102332.47;5015204;28;45482;-75
2022/10/03 07:29:14;;;;;;;;;14.75;13.25;;;;;14.18;72.36;102321.72;5014943;28;45551;-75
2022/10/03 07:32:30;;;;;;;;;12.00;10.00;;;;;14.31;72.81;102342.78;5023870;28;45994;-75
2022/10/03 07:35:20;;;;;;;;;15.00;13.25;;;;;14.34;72.36;102342.69;4999831;28;45602;-72
2022/10/03 07:41:35;;;;;;;;;9.50;7.25;;;;;14.40;71.66;102347.00;5015518;28;45536;-72
2022/10/03 07:44:18;;;;;;;;;30.00;22.75;;;;;14.43;71.60;102343.34;4993518;28;45423;-74
2022/10/03 07:46:55;;;;;;;;;6.75;6.75;;;;;14.43;71.63;102344.22;5015243;28;45494;-73
2022/10/03 07:49:42;;;;;;;;;12.50;9.00;;;;;14.46;71.85;102343.22;5015428;28;45485;-73
2022/10/03 07:52:23;;;;;;;;;8.75;7.75;;;;;14.48;71.84;102352.13;5013949;28;45446;-74
2022/10/03 07:55:13;;;;;;;;;11.75;11.75;;;;;14.49;71.97;102349.38;5014202;28;46050;-73
2022/10/03 07:58:19;;;;;;;;;8.25;8.25;;;;;14.54;72.07;102354.63;5014374;28;45357;-72
2022/10/03 08:00:50;;;;;;;;;9.00;9.00;;;;;14.56;71.45;102355.44;5014766;28;45418;-73
2022/10/03 08:03:21;;;;;;;;;6.75;6.25;;;;;14.54;71.34;102352.81;5033951;28;45490;-71
2022/10/03 08:05:49;;;;;;;;;3.25;3.25;;;;;14.53;71.46;102364.53;5020690;28;45407;-69
2022/10/03 08:08:40;;;;;;;;;2.00;1.00;;;;;14.52;71.44;102369.97;5010746;28;45404;-70
2022/10/03 08:11:14;;;;;;;;;10.50;9.25;;;;;14.49;71.37;102370.09;5014775;28;45394;-69
2022/10/03 08:13:53;;;;;;;;;7.25;7.25;;;;;14.40;71.69;102352.41;5012709;28;45552;-71
2022/10/03 08:16:27;;;;;;;;;12.50;9.25;;;;;14.47;71.40;102372.84;5013305;28;45369;-71
2022/10/03 08:19:11;;;;;;;;;10.50;10.50;;;;;14.49;71.72;102370.09;5013645;28;45313;-70
2022/10/03 08:21:49;;;;;;;;;13.50;13.25;;;;;14.52;71.21;102361.88;5005326;28;45617;-70
2022/10/03 08:24:26;;;;;;;;;19.50;13.75;;;;;14.56;71.54;102363.53;5006912;28;45621;-71
2022/10/03 08:26:53;;;;;;;;;18.25;13.75;;;;;14.66;71.03;102365.84;5033296;28;46641;-73
2022/10/03 08:29:37;;;;;;;;;14.00;14.00;;;;;14.69;71.22;102367.53;5033740;28;45386;-72
2022/10/03 08:32:32;;;;;;;;;17.50;16.25;;;;;14.63;70.68;102338.09;5033263;28;45334;-74
2022/10/03 08:35:16;;;;;;;;;12.00;11.50;;;;;14.76;70.57;102358.28;5018147;28;46105;-72
2022/10/03 08:38:14;;;;;;;;;14.75;14.00;;;;;14.80;70.47;102354.50;5033009;28;46218;-71
2022/10/03 08:40:59;;;;;;;;;11.50;11.50;;;;;14.83;70.71;102345.41;5033680;28;45443;-73
2022/10/03 08:43:30;;;;;;;;;15.50;15.50;;;;;14.88;70.58;102359.66;5033268;28;45457;-73
2022/10/03 08:45:55;;;;;;;;;13.75;13.75;;;;;14.93;70.80;102347.72;5033520;28;45273;-72
2022/10/03 08:48:26;;;;;;;;;12.50;12.50;;;;;14.99;70.70;102352.00;5032923;28;46271;-74
2022/10/03 08:51:03;;;;;;;;;15.75;12.75;;;;;15.02;70.19;102355.47;5031566;28;45411;-74
2022/10/03 08:53:56;;;;;;;;;14.00;14.00;;;;;15.06;69.92;102351.69;5031066;28;45568;-72
2022/10/03 08:56:53;;;;;;;;;15.75;14.25;;;;;15.07;69.70;102352.56;5032116;28;45344;-73
2022/10/03 08:59:37;;;;;;;;;15.00;14.50;;;;;15.04;69.81;102350.88;5032926;28;46162;-72
2022/10/03 09:02:39;;;;;;;;;17.25;15.00;;;;;15.05;69.59;102351.78;5032243;28;45429;-73
2022/10/03 09:05:50;;;;;;;;;20.00;14.75;;;;;15.08;69.29;102362.44;5021499;28;45519;-72
2022/10/03 09:08:54;;;;;;;;;16.25;14.75;;;;;15.08;69.07;102360.63;4970796;28;45520;-72
2022/10/03 09:11:41;;;;;;;;;16.75;16.50;;;;;15.05;68.87;102367.97;5014729;28;46654;-72
2022/10/03 09:14:37;;;;;;;;;16.50;14.75;;;;;15.02;68.81;102365.38;5032431;28;45419;-72
2022/10/03 09:17:24;;;;;;;;;15.25;15.25;;;;;15.02;69.09;102376.19;5015106;28;45396;-71
2022/10/03 09:20:15;;;;;;;;;16.25;16.00;;;;;14.96;69.21;102380.00;5034877;28;45415;-70
2022/10/03 09:23:21;;;;;;;;;20.50;19.75;;;;;14.96;69.50;102388.13;5036586;28;46206;-72
2022/10/03 09:26:20;;;;;;;;;19.50;18.75;;;;;14.89;69.32;102366.78;4990584;28;45407;-74
2022/10/03 09:29:25;;;;;;;;;16.00;16.00;;;;;15.01;69.55;102385.22;5030148;28;45438;-72
2022/10/03 09:32:22;;;;;;;;;21.00;18.50;;;;;15.09;69.26;102393.91;5013841;28;45552;-72
2022/10/03 09:35:02;;;;;;;;;20.50;20.50;;;;;15.11;69.05;102397.44;5026300;28;46419;-71
2022/10/03 09:37:49;;;;;;;;;18.75;18.50;;;;;15.16;69.53;102400.84;5037805;28;45427;-73
2022/10/03 09:41:02;;;;;;;;;21.75;19.00;;;;;15.25;69.13;102405.00;5038229;28;45415;-72
2022/10/03 09:44:06;;;;;;;;;24.00;23.50;;;;;15.21;68.75;102381.75;4976678;28;45815;-73
2022/10/03 09:46:40;;;;;;;;;24.00;23.75;;;;;15.35;68.50;102399.19;4955640;28;45586;-73
2022/10/03 09:49:12;;;;;;;;;26.75;24.50;;;;;15.36;67.56;102397.38;5025226;28;45382;-72
2022/10/03 09:52:11;;;;;;;;;20.75;18.25;;;;;15.32;67.92;102399.31;5011211;28;45477;-72
2022/10/03 09:55:04;;;;;;;;;26.50;23.75;;;;;15.36;68.27;102394.66;5034182;28;45657;-72
2022/10/03 09:57:53;;;;;;;;;27.00;24.75;;;;;15.42;68.23;102389.91;5035639;28;45390;-70
2022/10/03 10:00:21;;;;;;;;;31.50;23.75;;;;;15.38;68.27;102363.06;4995787;28;45324;-72
2022/10/03 10:03:05;;;;;;;;;23.50;23.25;;;;;15.38;67.94;102355.84;5035224;28;45391;-72
2022/10/03 10:05:51;;;;;;;;;22.75;21.25;;;;;15.56;67.65;102372.28;5040751;28;45343;-75
2022/10/03 10:08:35;;;;;;;;;24.25;23.00;;;;;15.59;67.97;102372.16;5024830;28;45432;-74
2022/10/03 10:11:19;;;;;;;;;26.00;24.25;;;;;15.64;67.52;102362.03;5035211;28;45485;-74
2022/10/03 10:14:21;;;;;;;;;27.00;23.00;;;;;15.67;66.96;102356.47;5036019;28;45686;-74
2022/10/03 10:17:27;;;;;;;;;32.75;28.00;;;;;15.64;67.27;102356.63;5024476;28;45326;-75
2022/10/03 10:19:58;;;;;;;;;30.50;25.50;;;;;15.73;67.57;102369.78;5026658;28;46342;-74
2022/10/03 10:22:58;;;;;;;;;24.25;22.00;;;;;15.78;67.26;102378.56;5016348;28;45566;-74
2022/10/03 10:26:02;;;;;;;;;24.75;22.50;;;;;15.78;66.45;102374.03;5032977;28;45401;-74
2022/10/03 10:28:58;;;;;;;;;28.25;28.25;;;;;15.75;66.99;102367.88;5026650;28;45628;-79
2022/10/03 10:31:45;;;;;;;;;24.75;24.75;;;;;15.79;66.78;102364.09;5027803;28;45394;-79
2022/10/03 10:34:35;;;;;;;;;29.25;25.75;;;;;15.81;67.16;102373.03;5025834;28;45358;-77
2022/10/03 10:37:17;;;;;;;;;29.75;21.25;;;;;15.83;67.03;102372.00;5043537;28;45245;-83
2022/10/03 10:40:32;;;;;;;;;25.25;25.00;;;;;15.87;66.58;102375.47;5035527;28;46154;-75
2022/10/03 10:43:34;;;;;;;;;29.75;25.25;;;;;15.95;66.35;102361.63;5034101;28;45784;-70
2022/10/03 10:46:38;;;;;;;;;31.50;29.25;;;;;15.98;66.34;102359.69;5027717;28;45360;-74
2022/10/03 10:49:18;;;;;;;;;27.75;26.00;;;;;15.99;66.33;102355.16;4984007;28;45396;-74
2022/10/03 10:51:52;;;;;;;;;24.50;22.50;;;;;15.99;66.37;102356.00;4990907;28;45381;-75
2022/10/03 10:54:30;;;;;;;;;26.75;25.50;;;;;15.99;65.89;102347.03;5020974;28;45565;-75
2022/10/03 10:57:13;;;;;;;;;23.00;22.50;;;;;15.95;65.55;102348.97;5037801;28;45240;-77
2022/10/03 11:00:17;;;;;;;;;22.00;19.75;;;;;15.97;66.15;102352.50;5033993;28;45383;-74
2022/10/03 11:02:51;;;;;;;;;22.75;19.00;;;;;15.95;66.34;102361.63;4953789;28;45433;-75
2022/10/03 11:05:28;;;;;;;;;18.25;18.00;;;;;15.87;65.99;102360.13;5023623;28;45422;-73
2022/10/03 11:08:05;;;;;;;;;19.75;18.75;;;;;15.82;66.71;102363.97;5020988;28;45166;-74
2022/10/03 11:11:03;;;;;;;;;22.50;20.00;;;;;15.84;66.21;102359.38;5035078;28;45273;-74
2022/10/03 11:14:04;;;;;;;;;20.00;16.00;;;;;15.86;66.22;102354.78;5031345;28;45331;-73
2022/10/03 11:16:59;;;;;;;;;19.25;17.75;;;;;15.94;66.06;102362.56;5027179;28;46301;-75
2022/10/03 11:19:40;;;;;;;;;17.75;17.00;;;;;15.96;66.01;102350.75;5021990;28;45431;-74
2022/10/03 11:22:43;;;;;;;;;20.75;19.50;;;;;16.07;65.95;102364.69;5034665;28;45547;-74
2022/10/03 11:25:20;;;;;;;;;19.00;16.50;;;;;16.13;66.02;102352.72;5034780;28;45875;-75
2022/10/03 11:28:07;;;;;;;;;16.75;16.75;;;;;16.18;65.97;102359.69;5035205;28;45468;-75
2022/10/03 11:30:52;;;;;;;;;20.50;19.75;;;;;16.21;65.41;102356.84;5034418;28;45304;-74
2022/10/03 11:33:38;;;;;;;;;19.25;17.25;;;;;16.23;65.11;102357.69;5034837;28;45441;-75
2022/10/03 11:36:24;;;;;;;;;20.00;18.50;;;;;16.25;65.09;102360.28;5003462;28;45536;-74
2022/10/03 11:39:13;;;;;;;;;23.25;19.25;;;;;16.23;64.78;102351.38;5033630;28;45345;-74
2022/10/03 11:42:20;;;;;;;;;21.25;19.75;;;;;16.21;65.14;102343.31;5027047;28;45453;-72
2022/10/03 11:44:51;;;;;;;;;19.25;19.25;;;;;16.21;64.88;102335.22;4952745;28;45386;-72
2022/10/03 11:47:46;;;;;;;;;19.25;19.25;;;;;16.26;64.70;102345.81;5006169;28;45323;-74
2022/10/03 11:50:33;;;;;;;;;19.75;19.25;;;;;16.23;64.15;102337.84;4962760;28;45365;-73
2022/10/03 11:53:13;;;;;;;;;21.00;21.00;;;;;16.22;64.92;102334.25;5034025;28;45379;-73
2022/10/03 11:55:57;;;;;;;;;20.00;20.00;;;;;16.30;64.58;102336.63;5034314;28;45372;-74
2022/10/03 11:58:22;;;;;;;;;21.25;18.50;;;;;16.33;63.68;102341.03;5034309;28;45409;-73
2022/10/03 12:01:15;;;;;;;;;22.75;22.75;;;;;16.37;63.68;102345.34;5033932;28;45492;-75
2022/10/03 12:04:25;;;;;;;;;19.00;19.00;;;;;16.38;63.40;102329.03;5019710;28;45548;-72
2022/10/03 12:10:02;;;;;;;;;20.50;18.50;;;;;16.65;62.88;102332.38;5008874;28;45379;-74
2022/10/03 12:12:30;;;;;;;;;16.00;14.00;;;;;16.77;62.76;102330.91;5034113;28;46474;-73
2022/10/03 12:15:22;;;;;;;;;24.25;20.25;;;;;16.82;61.85;102345.13;5033692;28;45396;-73
2022/10/03 12:18:33;;;;;;;;;17.25;17.25;;;;;16.88;61.83;102343.00;5015223;28;45442;-74
2022/10/03 12:21:05;;;;;;;;;18.50;18.00;;;;;16.90;61.66;102330.28;5010805;28;45492;-74
2022/10/03 12:23:37;;;;;;;;;20.00;18.00;;;;;16.88;61.38;102332.16;5013708;28;46030;-75
2022/10/03 12:26:06;;;;;;;;;21.00;18.75;;;;;16.82;61.22;102331.56;5014167;28;45350;-72
2022/10/03 12:28:43;;;;;;;;;20.25;18.00;;;;;16.74;62.06;102299.44;5018133;28;45275;-77
2022/10/03 12:31:42;;;;;;;;;20.50;16.75;;;;;16.89;61.79;102309.53;5015738;28;45355;-78
2022/10/03 12:34:38;;;;;;;;;13.25;11.00;;;;;16.90;62.04;102323.97;5008338;28;46194;-79
2022/10/03 12:37:32;;;;;;;;;18.75;16.00;;;;;16.92;62.59;102316.66;5012167;28;45888;-74
2022/10/03 12:40:01;;;;;;;;;20.25;20.25;;;;;16.97;61.97;102320.91;5016705;28;45625;-74
2022/10/03 12:42:32;;;;;;;;;17.00;17.00;;;;;17.05;61.41;102314.22;5010920;28;45470;-74
2022/10/03 12:45:09;;;;;;;;;23.25;20.25;;;;;17.12;61.39;102304.84;5013015;28;46320;-71
2022/10/03 12:47:53;;;;;;;;;21.00;19.25;;;;;17.04;60.56;102299.78;5013614;28;45420;-71
2022/10/03 12:50:29;;;;;;;;;19.25;19.25;;;;;16.98;60.66;102294.69;5015007;28;45397;-74
2022/10/03 12:53:19;;;;;;;;;18.25;18.25;;;;;16.96;61.20;102292.03;5035013;28;45502;-71
2022/10/03 12:55:58;;;;;;;;;14.75;14.75;;;;;16.98;61.84;102297.38;5037038;28;45307;-72
2022/10/03 12:58:29;;;;;;;;;16.75;15.50;;;;;17.03;61.33;102290.78;5036158;28;45351;-72
2022/10/03 13:01:00;;;;;;;;;17.75;14.75;;;;;17.05;61.77;102297.97;5015703;28;45538;-71
2022/10/03 13:03:53;;;;;;;;;14.00;11.75;;;;;17.06;61.35;102281.63;5026742;28;45294;-71
2022/10/03 13:06:32;;;;;;;;;16.50;16.50;;;;;17.06;61.09;102287.06;5030369;28;46644;-72
2022/10/03 13:09:31;;;;;;;;;12.75;12.75;;;;;16.99;61.10;102280.19;5031192;28;45310;-71
2022/10/03 13:12:35;;;;;;;;;14.25;12.50;;;;;17.01;61.81;102281.84;5037226;28;45284;-70
2022/10/03 13:15:39;;;;;;;;;13.00;13.00;;;;;17.06;62.03;102287.06;5036273;28;45390;-72
2022/10/03 13:18:19;;;;;;;;;13.75;12.00;;;;;17.03;61.20;102288.06;5019604;28;45471;-71
2022/10/03 13:21:16;;;;;;;;;11.25;9.75;;;;;17.02;60.93;102291.72;5016866;28;45450;-71
2022/10/03 13:24:01;;;;;;;;;15.00;13.25;;;;;17.01;60.69;102283.72;5014055;28;45423;-72
2022/10/03 13:27:03;;;;;;;;;16.25;11.75;;;;;16.89;60.38;102262.63;5016155;28;45589;-73
2022/10/03 13:29:49;;;;;;;;;12.75;12.75;;;;;16.95;60.75;102273.13;5016090;28;46047;-72
2022/10/03 13:32:23;;;;;;;;;13.00;11.50;;;;;16.96;60.58;102283.91;5015993;28;45244;-73
2022/10/03 13:38:17;;;;;;;;;14.50;14.00;;;;;17.11;61.39;102267.84;5015876;28;45316;-69
2022/10/03 13:41:04;;;;;;;;;11.75;11.50;;;;;17.18;60.96;102269.34;5014429;28;45384;-72
2022/10/03 13:43:36;;;;;;;;;16.50;16.50;;;;;17.16;60.53;102258.56;5034756;28;45496;-71
2022/10/03 13:46:12;;;;;;;;;15.75;14.25;;;;;17.26;61.14;102261.69;5023221;28;45408;-72
2022/10/03 13:48:40;;;;;;;;;16.00;14.75;;;;;17.28;60.31;102251.63;5023687;28;45357;-72
2022/10/03 13:51:30;;;;;;;;;16.25;13.25;;;;;17.30;60.00;102241.59;4999945;28;45851;-71
2022/10/03 13:54:07;;;;;;;;;14.25;13.00;;;;;17.37;59.88;102249.34;5014288;28;45364;-73
2022/10/03 13:57:03;;;;;;;;;13.50;13.50;;;;;17.46;59.78;102250.72;5015793;28;45175;-72
2022/10/03 13:59:48;;;;;;;;;15.75;15.75;;;;;17.51;59.90;102247.78;5018756;28;45458;-73
2022/10/03 14:02:31;;;;;;;;;15.50;15.50;;;;;17.53;59.49;102241.31;5010643;28;45831;-74
2022/10/03 14:05:35;;;;;;;;;17.25;16.00;;;;;17.54;59.05;102239.47;5016297;28;45501;-72
2022/10/03 14:08:49;;;;;;;;;14.00;14.00;;;;;17.53;59.95;102225.03;5007746;28;45357;-72
2022/10/03 14:11:25;;;;;;;;;17.00;13.50;;;;;17.30;58.36;102163.88;5004317;28;45469;-71
2022/10/03 14:14:09;;;;;;;;;14.00;14.00;;;;;17.95;57.76;102213.81;5019109;28;46281;-76
2022/10/03 14:16:40;;;;;;;;;14.25;13.50;;;;;18.24;56.58;102206.81;5014107;28;45372;-75
2022/10/03 14:19:34;;;;;;;;;11.50;11.50;;;;;18.34;55.72;102213.50;5014541;28;45264;-74
2022/10/03 14:22:25;;;;;;;;;13.50;11.50;;;;;18.38;55.96;102212.34;5015622;28;45453;-74
2022/10/03 14:25:11;;;;;;;;;16.75;14.25;;;;;18.34;55.36;102216.22;5020544;28;46221;-71
2022/10/03 14:27:48;;;;;;;;;15.00;13.50;;;;;18.35;55.75;102211.66;5010836;28;45465;-72
2022/10/03 14:30:22;;;;;;;;;12.75;12.75;;;;;18.39;55.46;102219.53;5035384;28;45501;-72
2022/10/03 14:32:52;;;;;;;;;14.00;13.25;;;;;18.31;55.42;102183.78;5020635;28;45867;-73
2022/10/03 14:35:23;;;;;;;;;16.50;16.50;;;;;18.42;55.37;102192.22;5015054;28;45528;-73
2022/10/03 14:38:17;;;;;;;;;12.75;12.75;;;;;18.42;55.05;102189.50;5015775;28;45413;-72
2022/10/03 14:40:45;;;;;;;;;13.75;11.75;;;;;18.59;55.20;102193.16;4986503;28;45402;-73
2022/10/03 14:43:32;;;;;;;;;16.25;14.25;;;;;19.05;54.40;102192.28;5014831;28;45474;-71
2022/10/03 14:46:00;;;;;;;;;12.75;12.75;;;;;19.56;52.94;102187.47;5015587;28;46310;-73
2022/10/03 14:48:33;;;;;;;;;16.50;12.50;;;;;20.03;51.77;102184.53;5015291;28;45398;-73
2022/10/03 14:51:40;;;;;;;;;12.25;12.00;;;;;20.50;49.58;102180.69;4997316;28;45637;-71
2022/10/03 14:54:26;;;;;;;;;10.75;10.75;;;;;20.94;50.11;102172.28;5003094;28;45440;-71
2022/10/03 14:56:53;;;;;;;;;13.50;13.50;;;;;21.07;48.89;102171.38;5014884;28;46190;-72
2022/10/03 14:59:25;;;;;;;;;13.50;10.75;;;;;21.03;48.13;102174.38;5015016;28;45411;-72
2022/10/03 15:01:56;;;;;;;;;13.75;13.50;;;;;20.84;48.46;102165.72;5015031;28;45397;-73
2022/10/03 15:04:27;;;;;;;;;18.50;14.75;;;;;20.61;49.43;102168.09;5014958;28;45393;-73
2022/10/03 15:06:55;;;;;;;;;15.00;15.00;;;;;20.41;49.57;102162.19;5021562;28;45397;-72
2022/10/03 15:09:39;;;;;;;;;11.75;11.50;;;;;20.25;50.30;102167.69;5034286;28;45411;-72
2022/10/03 15:12:30;;;;;;;;;14.25;11.50;;;;;20.15;50.60;102166.56;5035140;28;45515;-72
2022/10/03 15:15:05;;;;;;;;;12.25;10.75;;;;;20.00;51.05;102162.94;5033633;28;45455;-74
2022/10/03 15:17:34;;;;;;;;;12.75;11.25;;;;;19.89;50.80;102165.47;5017883;28;45349;-71
2022/10/03 15:20:03;;;;;;;;;15.00;12.25;;;;;19.75;51.24;102174.47;5033864;28;45464;-73
2022/10/03 15:22:39;;;;;;;;;12.25;12.25;;;;;19.65;51.66;102170.56;5030759;28;45389;-73
2022/10/03 15:25:12;;;;;;;;;11.25;11.25;;;;;19.55;51.92;102163.94;5027421;28;45627;-70
2022/10/03 15:27:41;;;;;;;;;9.25;9.25;;;;;19.44;51.86;102160.97;5030551;28;47184;-73
2022/10/03 15:30:17;;;;;;;;;12.75;12.50;;;;;19.39;52.00;102157.66;5034750;28;45515;-73
2022/10/03 15:32:47;;;;;;;;;7.75;7.75;;;;;19.27;52.44;102143.81;5022993;28;45363;-73
2022/10/03 15:35:26;;;;;;;;;12.50;10.75;;;;;19.25;52.74;102150.31;5014198;28;45554;-73
2022/10/03 15:37:56;;;;;;;;;11.50;11.50;;;;;19.18;52.91;102140.78;5014232;28;46084;-73
2022/10/03 15:40:34;;;;;;;;;13.25;10.00;;;;;19.16;52.92;102140.84;5014434;28;45376;-74
2022/10/03 15:43:24;;;;;;;;;14.75;13.75;;;;;19.28;53.07;102148.28;5014239;28;45489;-72
2022/10/03 15:45:51;;;;;;;;;8.00;8.00;;;;;19.35;53.16;102140.63;5013017;28;45562;-70
2022/10/03 15:48:21;;;;;;;;;10.00;10.00;;;;;19.30;51.89;102137.34;5018512;28;45522;-72
2022/10/03 15:50:55;;;;;;;;;10.25;9.50;;;;;19.23;53.04;102142.22;5030312;28;46636;-69
2022/10/03 15:53:30;;;;;;;;;10.75;10.75;;;;;19.19;53.01;102132.53;5020220;28;45655;-70
2022/10/03 15:56:05;;;;;;;;;11.75;11.75;;;;;19.11;53.08;102115.81;5032838;28;45520;-70
2022/10/03 15:58:37;;;;;;;;;14.50;10.25;;;;;19.01;53.23;102114.59;5033978;28;46097;-74
2022/10/03 16:01:15;;;;;;;;;8.50;8.25;;;;;18.96;53.19;102119.44;5032746;28;45419;-73
2022/10/03 16:03:48;;;;;;;;;8.25;8.25;;;;;18.80;53.52;102107.69;5034692;28;45237;-72
2022/10/03 16:06:46;;;;;;;;;10.50;9.50;;;;;18.74;53.95;102117.09;5028301;28;45571;-73
2022/10/03 16:09:32;;;;;;;;;11.00;10.00;;;;;18.63;54.26;102114.09;5022138;28;45675;-71
2022/10/03 16:11:57;;;;;;;;;10.00;10.00;;;;;18.57;55.23;102110.88;5025540;28;45360;-71
2022/10/03 16:14:53;;;;;;;;;13.00;11.75;;;;;18.24;54.21;102062.06;5014325;28;45455;-76
2022/10/03 16:17:22;;;;;;;;;12.00;9.75;;;;;18.30;54.76;102097.00;5005316;28;46054;-73
2022/10/03 16:20:01;;;;;;;;;6.75;6.50;;;;;18.20;55.20;102104.81;5014019;28;45467;-73
2022/10/03 16:22:38;;;;;;;;;11.00;11.00;;;;;18.11;55.41;102110.75;5017857;28;45135;-72
2022/10/03 16:25:08;;;;;;;;;10.25;10.25;;;;;18.02;55.20;102113.97;5013251;28;45459;-74
2022/10/03 16:27:40;;;;;;;;;12.00;12.00;;;;;17.90;55.43;102095.63;5019877;28;45326;-75
2022/10/03 16:30:08;;;;;;;;;9.50;8.50;;;;;17.86;56.30;102091.34;5016259;28;45462;-74
2022/10/03 16:32:41;;;;;;;;;12.00;12.00;;;;;17.69;56.50;102070.59;5018684;28;45440;-77
2022/10/03 16:35:24;;;;;;;;;10.25;10.25;;;;;17.68;56.51;102082.38;5034188;28;45383;-76
2022/10/03 16:37:51;;;;;;;;;14.25;12.75;;;;;17.64;56.28;102078.94;5033812;28;45382;-74
2022/10/03 16:40:21;;;;;;;;;10.75;10.75;;;;;17.67;57.06;102083.34;5033365;28;46575;-74
2022/10/03 16:42:51;;;;;;;;;11.00;10.25;;;;;17.63;56.96;102087.16;5022585;28;45352;-73
2022/10/03 16:45:33;;;;;;;;;11.50;10.00;;;;;17.52;57.47;102074.16;5013647;28;45305;-75
2022/10/03 16:50:51;;;;;;;;;11.50;11.00;;;;;17.43;57.04;102071.06;5013947;28;45389;-79
2022/10/03 16:53:18;;;;;;;;;13.50;13.50;;;;;17.34;57.66;102075.16;5012190;28;45487;-75
2022/10/03 16:55:51;;;;;;;;;16.00;14.75;;;;;17.25;57.46;102072.91;5013236;28;45285;-77
2022/10/03 16:58:28;;;;;;;;;13.50;13.50;;;;;17.24;58.51;102069.34;5013959;28;45438;-73
2022/10/03 17:01:05;;;;;;;;;13.25;12.50;;;;;17.18;58.82;102072.34;5012058;28;48690;-75
2022/10/03 17:03:44;;;;;;;;;14.00;12.50;;;;;17.02;58.72;102058.72;5013611;28;46635;-73
2022/10/03 17:06:20;;;;;;;;;13.75;13.00;;;;;17.08;58.57;102078.34;5018962;28;45357;-73
2022/10/03 17:08:51;;;;;;;;;17.25;15.50;;;;;17.01;58.80;102075.94;5026075;28;45470;-74